Time;durP1;ratioP1;P1;durP2;ratioP2;P2;SDS_P1;SDS_P2;PMS_P1;PMS_P2;Temp;Humidity;BMP_temperature;BMP_pressure;BME280_temperature;BME280_humidity;BME280_pressure;Samples;Min_cycle;Max_cycle;Signal;HPM_P1;HPM_P2
2024/02/24 00:00:56;;;;;;;;;;;;;;;;;;5098424;28;20015;-74
2024/02/24 00:03:24;;;;;;;;;;;;;;;;;;5098934;28;20311;-74
2024/02/24 00:05:51;;;;;;;;;;;;;;;;;;5099512;28;19931;-74
2024/02/24 00:08:18;;;;;;;;;;;;;;;;;;5106722;28;19943;-75
2024/02/24 00:10:45;;;;;;;;;;;;;;;;;;5098332;28;19924;-74
2024/02/24 00:13:12;;;;;;;;;;;;;;;;;;5102257;28;19978;-74
2024/02/24 00:15:39;;;;;;;;;;;;;;;;;;5097459;28;19932;-73
2024/02/24 00:18:06;;;;;;;;;;;;;;;;;;5097160;28;20566;-74
2024/02/24 00:20:33;;;;;;;;;;;;;;;;;;5098377;28;19973;-74
2024/02/24 00:23:00;;;;;;;;;;;;;;;;;;5095890;28;19940;-75
2024/02/24 00:25:27;;;;;;;;;;;;;;;;;;5096826;28;19935;-74
2024/02/24 00:27:54;;;;;;;;;;;;;;;;;;5098272;28;19928;-75
2024/02/24 00:30:21;;;;;;;;;;;;;;;;;;5096629;28;19972;-73
2024/02/24 00:32:48;;;;;;;;;;;;;;;;;;5079968;28;20390;-73
2024/02/24 00:35:16;;;;;;;;;;;;;;;;;;5084558;28;19927;-74
2024/02/24 00:37:44;;;;;;;;;;;;;;;;;;5082793;28;19928;-74
2024/02/24 00:40:11;;;;;;;;;;;;;;;;;;5083983;28;20401;-74
2024/02/24 00:42:38;;;;;;;;;;;;;;;;;;5085059;28;19928;-73
2024/02/24 00:45:05;;;;;;;;;;;;;;;;;;5095886;28;19928;-74
2024/02/24 00:47:32;;;;;;;;;;;;;;;;;;5082743;28;19975;-75
2024/02/24 00:49:59;;;;;;;;;;;;;;;;;;5084423;28;20006;-72
2024/02/24 00:52:26;;;;;;;;;;;;;;;;;;5088067;28;20418;-73
2024/02/24 00:54:53;;;;;;;;;;;;;;;;;;5083734;28;20402;-72
2024/02/24 00:57:20;;;;;;;;;;;;;;;;;;5078492;28;19967;-72
2024/02/24 00:59:47;;;;;;;;;;;;;;;;;;5082752;28;19963;-72
2024/02/24 01:02:14;;;;;;;;;;;;;;;;;;5090085;28;19978;-72
2024/02/24 01:04:41;;;;;;;;;;;;;;;;;;5089191;28;20010;-72
2024/02/24 01:07:10;;;;;;;;;;;;;;;;;;5083928;28;19942;-73
2024/02/24 01:09:37;;;;;;;;;;;;;;;;;;5083724;28;19928;-71
2024/02/24 01:12:04;;;;;;;;;;;;;;;;;;5083426;28;20604;-72
2024/02/24 01:14:32;;;;;;;;;;;;;;;;;;5089573;28;19936;-71
2024/02/24 01:16:59;;;;;;;;;;;;;;;;;;5082844;28;19950;-72
2024/02/24 01:19:26;;;;;;;;;;;;;;;;;;5087544;28;19971;-72
2024/02/24 01:21:53;;;;;;;;;;;;;;;;;;5080071;28;20411;-72
2024/02/24 01:24:20;;;;;;;;;;;;;;;;;;5079754;28;21922;-72
2024/02/24 01:26:47;;;;;;;;;;;;;;;;;;5085300;28;20034;-72
2024/02/24 01:29:14;;;;;;;;;;;;;;;;;;5089022;28;20442;-71
2024/02/24 01:31:41;;;;;;;;;;;;;;;;;;5085841;28;19963;-71
2024/02/24 01:34:08;;;;;;;;;;;;;;;;;;5092290;28;19932;-72
2024/02/24 01:36:35;;;;;;;;;;;;;;;;;;5088142;28;19932;-72
2024/02/24 01:39:03;;;;;;;;;;;;;;;;;;5088137;28;19967;-71
2024/02/24 01:41:29;;;;;;;;;;;;;;;;;;5089708;28;19928;-72
2024/02/24 01:43:57;;;;;;;;;;;;;;;;;;5088665;28;19938;-72
2024/02/24 01:46:24;;;;;;;;;;;;;;;;;;5089864;28;19937;-72
2024/02/24 01:48:51;;;;;;;;;;;;;;;;;;5089759;28;20399;-72
2024/02/24 01:51:18;;;;;;;;;;;;;;;;;;5088300;28;19977;-71
2024/02/24 01:53:45;;;;;;;;;;;;;;;;;;5088767;28;20020;-71
2024/02/24 01:56:12;;;;;;;;;;;;;;;;;;5082803;28;20284;-71
2024/02/24 01:58:39;;;;;;;;;;;;;;;;;;5087444;28;20082;-71
2024/02/24 02:01:06;;;;;;;;;;;;;;;;;;5087385;28;19935;-72
2024/02/24 02:03:33;;;;;;;;;;;;;;;;;;5088696;28;20034;-73
2024/02/24 02:06:00;;;;;;;;;;;;;;;;;;5087582;28;20027;-71
2024/02/24 02:08:27;;;;;;;;;;;;;;;;;;5087723;28;20856;-71
2024/02/24 02:10:55;;;;;;;;;;;;;;;;;;5089177;28;19939;-71
2024/02/24 02:13:22;;;;;;;;;;;;;;;;;;5089919;28;20583;-70
2024/02/24 02:15:49;;;;;;;;;;;;;;;;;;5088396;28;20460;-71
2024/02/24 02:18:16;;;;;;;;;;;;;;;;;;5087797;28;19941;-70
2024/02/24 02:20:43;;;;;;;;;;;;;;;;;;5094650;28;20569;-70
2024/02/24 02:23:10;;;;;;;;;;;;;;;;;;5087911;28;20009;-70
2024/02/24 02:25:38;;;;;;;;;;;;;;;;;;5088671;28;20276;-70
2024/02/24 02:28:05;;;;;;;;;;;;;;;;;;5090334;28;19954;-71
2024/02/24 02:30:32;;;;;;;;;;;;;;;;;;5090029;28;20054;-71
2024/02/24 02:32:59;;;;;;;;;;;;;;;;;;5076479;28;19936;-70
2024/02/24 02:35:26;;;;;;;;;;;;;;;;;;5087068;28;19950;-70
2024/02/24 02:37:53;;;;;;;;;;;;;;;;;;5091641;28;20022;-71
2024/02/24 02:40:20;;;;;;;;;;;;;;;;;;5088300;28;20023;-70
2024/02/24 02:42:47;;;;;;;;;;;;;;;;;;5089101;28;19932;-71
2024/02/24 02:45:14;;;;;;;;;;;;;;;;;;5088445;28;19936;-70
2024/02/24 02:47:41;;;;;;;;;;;;;;;;;;5088693;28;19973;-70
2024/02/24 02:50:08;;;;;;;;;;;;;;;;;;5094485;28;20315;-73
2024/02/24 02:52:36;;;;;;;;;;;;;;;;;;5097301;28;20014;-73
2024/02/24 02:55:03;;;;;;;;;;;;;;;;;;5088764;28;19934;-75
2024/02/24 02:57:30;;;;;;;;;;;;;;;;;;5086298;28;19932;-73
2024/02/24 02:59:57;;;;;;;;;;;;;;;;;;5090770;28;20015;-81
2024/02/24 03:02:24;;;;;;;;;;;;;;;;;;5096175;28;19970;-74
2024/02/24 03:04:51;;;;;;;;;;;;;;;;;;5094288;28;19931;-74
2024/02/24 03:07:18;;;;;;;;;;;;;;;;;;5091197;28;19943;-72
2024/02/24 03:09:45;;;;;;;;;;;;;;;;;;5088755;28;20015;-74
2024/02/24 03:12:12;;;;;;;;;;;;;;;;;;5093868;28;20040;-73
2024/02/24 03:14:39;;;;;;;;;;;;;;;;;;5091209;28;19989;-74
2024/02/24 03:17:06;;;;;;;;;;;;;;;;;;5087982;28;19939;-73
2024/02/24 03:19:33;;;;;;;;;;;;;;;;;;5097388;28;19970;-74
2024/02/24 03:22:00;;;;;;;;;;;;;;;;;;5092959;28;20364;-74
2024/02/24 03:24:27;;;;;;;;;;;;;;;;;;5093523;28;20020;-73
2024/02/24 03:26:54;;;;;;;;;;;;;;;;;;5090334;28;20015;-73
2024/02/24 03:29:21;;;;;;;;;;;;;;;;;;5091564;28;19924;-74
2024/02/24 03:31:48;;;;;;;;;;;;;;;;;;5091932;28;20011;-74
2024/02/24 03:34:15;;;;;;;;;;;;;;;;;;5086739;28;19935;-74
2024/02/24 03:36:42;;;;;;;;;;;;;;;;;;5090040;28;19939;-72
2024/02/24 03:39:09;;;;;;;;;;;;;;;;;;5099520;28;19928;-74
2024/02/24 03:41:36;;;;;;;;;;;;;;;;;;5090587;28;20024;-75
2024/02/24 03:44:03;;;;;;;;;;;;;;;;;;5104658;28;19974;-74
2024/02/24 03:46:30;;;;;;;;;;;;;;;;;;5090430;28;20023;-72
2024/02/24 03:48:57;;;;;;;;;;;;;;;;;;5091311;28;19975;-73
2024/02/24 03:51:24;;;;;;;;;;;;;;;;;;5090196;28;19927;-73
2024/02/24 03:53:52;;;;;;;;;;;;;;;;;;5104965;28;19928;-73
2024/02/24 03:56:19;;;;;;;;;;;;;;;;;;5091242;28;19932;-72
2024/02/24 03:58:46;;;;;;;;;;;;;;;;;;5091482;28;19932;-73
2024/02/24 04:01:13;;;;;;;;;;;;;;;;;;5090953;28;19933;-73
2024/02/24 04:03:40;;;;;;;;;;;;;;;;;;5096772;28;19931;-73
2024/02/24 04:06:07;;;;;;;;;;;;;;;;;;5092448;28;19932;-74
2024/02/24 04:08:35;;;;;;;;;;;;;;;;;;5090782;28;19932;-74
2024/02/24 04:11:02;;;;;;;;;;;;;;;;;;5086303;28;19928;-73
2024/02/24 04:13:29;;;;;;;;;;;;;;;;;;5085486;28;19932;-74
2024/02/24 04:15:56;;;;;;;;;;;;;;;;;;5091142;28;19924;-73
2024/02/24 04:18:23;;;;;;;;;;;;;;;;;;5091335;28;19928;-74
2024/02/24 04:20:50;;;;;;;;;;;;;;;;;;5098754;28;19978;-73
2024/02/24 04:23:17;;;;;;;;;;;;;;;;;;5089961;28;20493;-73
2024/02/24 04:25:44;;;;;;;;;;;;;;;;;;5092395;28;20294;-74
2024/02/24 04:28:12;;;;;;;;;;;;;;;;;;5091067;28;19932;-74
2024/02/24 04:30:39;;;;;;;;;;;;;;;;;;5090653;28;19940;-74
2024/02/24 04:33:06;;;;;;;;;;;;;;;;;;5096356;28;20371;-74
2024/02/24 04:35:33;;;;;;;;;;;;;;;;;;5088749;28;20030;-74
2024/02/24 04:38:05;;;;;;;;;;;;;;;;;;5090781;28;19928;-73
2024/02/24 04:40:33;;;;;;;;;;;;;;;;;;5089544;28;19928;-73
2024/02/24 04:43:00;;;;;;;;;;;;;;;;;;5091165;28;19935;-74
2024/02/24 04:45:27;;;;;;;;;;;;;;;;;;5090196;28;20035;-73
2024/02/24 04:47:54;;;;;;;;;;;;;;;;;;5090820;28;19928;-73
2024/02/24 04:50:24;;;;;;;;;;;;;;;;;;5091003;28;19935;-74
2024/02/24 04:52:52;;;;;;;;;;;;;;;;;;5089591;28;19928;-73
2024/02/24 04:55:19;;;;;;;;;;;;;;;;;;5090605;28;19985;-73
2024/02/24 04:57:46;;;;;;;;;;;;;;;;;;5089450;28;19924;-73
2024/02/24 05:00:13;;;;;;;;;;;;;;;;;;5088720;28;19934;-73
2024/02/24 05:02:40;;;;;;;;;;;;;;;;;;5090380;28;19927;-73
2024/02/24 05:05:07;;;;;;;;;;;;;;;;;;5090515;28;19975;-74
2024/02/24 05:07:34;;;;;;;;;;;;;;;;;;5091082;28;19935;-74
2024/02/24 05:10:01;;;;;;;;;;;;;;;;;;5092196;28;19932;-73
2024/02/24 05:12:28;;;;;;;;;;;;;;;;;;5092221;28;19977;-74
2024/02/24 05:14:55;;;;;;;;;;;;;;;;;;5095483;28;20599;-73
2024/02/24 05:17:22;;;;;;;;;;;;;;;;;;5090798;28;20056;-74
2024/02/24 05:19:49;;;;;;;;;;;;;;;;;;5089901;28;20072;-73
2024/02/24 05:22:16;;;;;;;;;;;;;;;;;;5089446;28;19935;-75
2024/02/24 05:24:44;;;;;;;;;;;;;;;;;;5095325;28;20388;-76
2024/02/24 05:27:11;;;;;;;;;;;;;;;;;;5089934;28;19978;-73
2024/02/24 05:29:38;;;;;;;;;;;;;;;;;;5090193;28;20363;-74
2024/02/24 05:32:05;;;;;;;;;;;;;;;;;;5089049;28;19974;-74
2024/02/24 05:34:32;;;;;;;;;;;;;;;;;;5093775;28;19931;-73
2024/02/24 05:36:59;;;;;;;;;;;;;;;;;;5085794;28;19983;-74
2024/02/24 05:39:26;;;;;;;;;;;;;;;;;;5089624;28;20023;-74
2024/02/24 05:41:53;;;;;;;;;;;;;;;;;;5089872;28;19978;-73
2024/02/24 05:44:20;;;;;;;;;;;;;;;;;;5090102;28;19971;-75
2024/02/24 05:46:47;;;;;;;;;;;;;;;;;;5096535;28;19930;-73
2024/02/24 05:49:14;;;;;;;;;;;;;;;;;;5097984;28;19928;-74
2024/02/24 05:51:41;;;;;;;;;;;;;;;;;;5088042;28;20497;-74
2024/02/24 05:54:08;;;;;;;;;;;;;;;;;;5089363;28;20034;-73
2024/02/24 05:56:35;;;;;;;;;;;;;;;;;;5089594;28;20006;-75
2024/02/24 05:59:02;;;;;;;;;;;;;;;;;;5089908;28;19955;-75
2024/02/24 06:01:29;;;;;;;;;;;;;;;;;;5088325;28;20015;-74
2024/02/24 06:03:56;;;;;;;;;;;;;;;;;;5088645;28;19924;-73
2024/02/24 06:06:23;;;;;;;;;;;;;;;;;;5092013;28;20381;-75
2024/02/24 06:08:51;;;;;;;;;;;;;;;;;;5093326;28;19981;-75
2024/02/24 06:11:18;;;;;;;;;;;;;;;;;;5087503;28;20310;-75
2024/02/24 06:13:46;;;;;;;;;;;;;;;;;;5088082;28;19924;-75
2024/02/24 06:16:13;;;;;;;;;;;;;;;;;;5090663;28;19928;-74
2024/02/24 06:18:40;;;;;;;;;;;;;;;;;;5103808;28;20039;-74
2024/02/24 06:21:07;;;;;;;;;;;;;;;;;;5087781;28;20023;-74
2024/02/24 06:23:34;;;;;;;;;;;;;;;;;;5089212;28;19928;-76
2024/02/24 06:26:01;;;;;;;;;;;;;;;;;;5089282;28;19928;-74
2024/02/24 06:28:28;;;;;;;;;;;;;;;;;;5082854;28;19932;-73
2024/02/24 06:30:55;;;;;;;;;;;;;;;;;;5088126;28;20341;-78
2024/02/24 06:33:22;;;;;;;;;;;;;;;;;;5088977;28;20030;-74
2024/02/24 06:35:49;;;;;;;;;;;;;;;;;;5088894;28;19935;-74
2024/02/24 06:38:16;;;;;;;;;;;;;;;;;;5088922;28;20022;-76
2024/02/24 06:40:43;;;;;;;;;;;;;;;;;;5089290;28;20020;-73
2024/02/24 06:43:10;;;;;;;;;;;;;;;;;;5089230;28;19936;-73
2024/02/24 06:45:37;;;;;;;;;;;;;;;;;;5086711;28;19951;-73
2024/02/24 06:48:04;;;;;;;;;;;;;;;;;;5089545;28;20005;-74
2024/02/24 06:50:31;;;;;;;;;;;;;;;;;;5090552;28;19964;-73
2024/02/24 06:52:58;;;;;;;;;;;;;;;;;;5090811;28;19928;-74
2024/02/24 06:55:25;;;;;;;;;;;;;;;;;;5095500;28;19928;-72
2024/02/24 06:57:52;;;;;;;;;;;;;;;;;;5088997;28;19997;-74
2024/02/24 07:00:20;;;;;;;;;;;;;;;;;;5088089;28;19928;-74
2024/02/24 07:02:47;;;;;;;;;;;;;;;;;;5088451;28;20381;-74
2024/02/24 07:05:14;;;;;;;;;;;;;;;;;;5087347;28;19974;-75
2024/02/24 07:07:41;;;;;;;;;;;;;;;;;;5088833;28;20013;-75
2024/02/24 07:10:08;;;;;;;;;;;;;;;;;;5087154;28;20448;-73
2024/02/24 07:12:35;;;;;;;;;;;;;;;;;;5087327;28;19954;-74
2024/02/24 07:15:02;;;;;;;;;;;;;;;;;;5087902;28;20767;-74
2024/02/24 07:17:29;;;;;;;;;;;;;;;;;;5088666;28;20019;-75
2024/02/24 07:19:56;;;;;;;;;;;;;;;;;;5088251;28;19967;-74
2024/02/24 07:22:23;;;;;;;;;;;;;;;;;;5091992;28;20390;-74
2024/02/24 07:24:50;;;;;;;;;;;;;;;;;;5091906;28;20027;-72
2024/02/24 07:27:17;;;;;;;;;;;;;;;;;;5092334;28;19928;-74
2024/02/24 07:29:44;;;;;;;;;;;;;;;;;;5091172;28;20398;-75
2024/02/24 07:32:12;;;;;;;;;;;;;;;;;;5090279;28;19974;-74
2024/02/24 07:34:39;;;;;;;;;;;;;;;;;;5092221;28;20019;-74
2024/02/24 07:37:06;;;;;;;;;;;;;;;;;;5092224;28;19928;-73
2024/02/24 07:39:33;;;;;;;;;;;;;;;;;;5090161;28;20554;-74
2024/02/24 07:42:00;;;;;;;;;;;;;;;;;;5091621;28;19928;-75
2024/02/24 07:44:27;;;;;;;;;;;;;;;;;;5092281;28;19935;-74
2024/02/24 07:46:54;;;;;;;;;;;;;;;;;;5084213;28;19956;-75
2024/02/24 07:49:21;;;;;;;;;;;;;;;;;;5091436;28;19932;-71
2024/02/24 07:51:50;;;;;;;;;;;;;;;;;;5089928;28;19928;-76
2024/02/24 07:54:17;;;;;;;;;;;;;;;;;;5090485;28;19982;-74
2024/02/24 07:56:45;;;;;;;;;;;;;;;;;;5091446;28;19928;-75
2024/02/24 07:59:12;;;;;;;;;;;;;;;;;;5091707;28;20336;-74
2024/02/24 08:01:39;;;;;;;;;;;;;;;;;;5090633;28;19973;-74
2024/02/24 08:04:06;;;;;;;;;;;;;;;;;;5091335;28;19981;-75
2024/02/24 08:06:33;;;;;;;;;;;;;;;;;;5091368;28;19932;-75
2024/02/24 08:09:00;;;;;;;;;;;;;;;;;;5091308;28;19981;-75
2024/02/24 08:11:29;;;;;;;;;;;;;;;;;;5091310;28;20474;-72
2024/02/24 08:13:56;;;;;;;;;;;;;;;;;;5091382;28;19928;-73
2024/02/24 08:16:23;;;;;;;;;;;;;;;;;;5087662;28;19954;-75
2024/02/24 08:18:50;;;;;;;;;;;;;;;;;;5078769;28;20027;-73
2024/02/24 08:21:17;;;;;;;;;;;;;;;;;;5088876;28;19928;-74
2024/02/24 08:23:44;;;;;;;;;;;;;;;;;;5091100;28;19973;-75
2024/02/24 08:26:11;;;;;;;;;;;;;;;;;;5090490;28;19934;-74
2024/02/24 08:28:38;;;;;;;;;;;;;;;;;;5090636;28;20019;-73
2024/02/24 08:31:05;;;;;;;;;;;;;;;;;;5089407;28;19935;-75
2024/02/24 08:33:32;;;;;;;;;;;;;;;;;;5082969;28;21566;-74
2024/02/24 08:35:59;;;;;;;;;;;;;;;;;;5087824;28;19975;-73
2024/02/24 08:38:27;;;;;;;;;;;;;;;;;;5090748;28;19932;-73
2024/02/24 08:40:54;;;;;;;;;;;;;;;;;;5089028;28;19935;-77
2024/02/24 08:43:22;;;;;;;;;;;;;;;;;;5090786;28;20032;-74
2024/02/24 08:45:49;;;;;;;;;;;;;;;;;;5087721;28;19928;-74
2024/02/24 08:48:16;;;;;;;;;;;;;;;;;;5089764;28;20355;-73
2024/02/24 08:50:43;;;;;;;;;;;;;;;;;;5089146;28;19967;-74
2024/02/24 08:53:10;;;;;;;;;;;;;;;;;;5089028;28;19928;-73
2024/02/24 08:55:37;;;;;;;;;;;;;;;;;;5083108;28;20020;-65
2024/02/24 08:58:04;;;;;;;;;;;;;;;;;;5089270;28;20022;-66
2024/02/24 09:00:31;;;;;;;;;;;;;;;;;;5089012;28;19928;-67
2024/02/24 09:02:58;;;;;;;;;;;;;;;;;;5083701;28;19927;-67
2024/02/24 09:05:25;;;;;;;;;;;;;;;;;;5089173;28;20047;-67
2024/02/24 09:07:52;;;;;;;;;;;;;;;;;;5089197;28;19932;-67
2024/02/24 09:10:19;;;;;;;;;;;;;;;;;;5080532;28;19928;-67
2024/02/24 09:12:46;;;;;;;;;;;;;;;;;;5086817;28;19928;-67
2024/02/24 09:15:13;;;;;;;;;;;;;;;;;;5089764;28;19931;-73
2024/02/24 09:17:40;;;;;;;;;;;;;;;;;;5089896;28;19972;-75
2024/02/24 09:20:08;;;;;;;;;;;;;;;;;;5086954;28;19932;-74
2024/02/24 09:22:38;;;;;;;;;;;;;;;;;;5090541;28;19958;-74
2024/02/24 09:25:05;;;;;;;;;;;;;;;;;;5086948;28;20398;-74
2024/02/24 09:27:33;;;;;;;;;;;;;;;;;;5088696;28;20226;-77
2024/02/24 09:30:00;;;;;;;;;;;;;;;;;;5089494;28;20713;-74
2024/02/24 09:32:27;;;;;;;;;;;;;;;;;;5089416;28;20337;-75
2024/02/24 09:35:03;;;;;;;;;;;;;;;;;;5087687;28;19934;-74
2024/02/24 09:37:31;;;;;;;;;;;;;;;;;;5087548;28;20050;-74
2024/02/24 09:39:58;;;;;;;;;;;;;;;;;;5089932;28;19982;-75
2024/02/24 09:42:25;;;;;;;;;;;;;;;;;;5089778;28;19934;-77
2024/02/24 09:44:52;;;;;;;;;;;;;;;;;;5088961;28;19943;-73
2024/02/24 09:47:19;;;;;;;;;;;;;;;;;;5087216;28;20133;-81
2024/02/24 09:49:46;;;;;;;;;;;;;;;;;;5087300;28;20005;-83
2024/02/24 09:52:13;;;;;;;;;;;;;;;;;;5089474;28;20015;-80
2024/02/24 09:54:40;;;;;;;;;;;;;;;;;;5089872;28;20016;-78
2024/02/24 09:57:07;;;;;;;;;;;;;;;;;;5089581;28;20372;-76
2024/02/24 09:59:34;;;;;;;;;;;;;;;;;;5086431;28;20403;-78
2024/02/24 10:02:01;;;;;;;;;;;;;;;;;;5089168;28;19977;-75
2024/02/24 10:04:28;;;;;;;;;;;;;;;;;;5086526;28;20430;-77
2024/02/24 10:06:55;;;;;;;;;;;;;;;;;;5086939;28;19928;-75
2024/02/24 10:09:23;;;;;;;;;;;;;;;;;;5086868;28;20371;-74
2024/02/24 10:11:50;;;;;;;;;;;;;;;;;;5089035;28;19959;-76
2024/02/24 10:14:17;;;;;;;;;;;;;;;;;;5089026;28;19974;-75
2024/02/24 10:16:46;;;;;;;;;;;;;;;;;;5088045;28;20126;-75
2024/02/24 10:19:13;;;;;;;;;;;;;;;;;;5086154;28;19928;-73
2024/02/24 10:21:40;;;;;;;;;;;;;;;;;;5085761;28;20023;-72
2024/02/24 10:24:07;;;;;;;;;;;;;;;;;;5079167;28;20564;-74
2024/02/24 10:26:34;;;;;;;;;;;;;;;;;;5085847;28;19928;-74
2024/02/24 10:29:01;;;;;;;;;;;;;;;;;;5084234;28;20456;-74
2024/02/24 10:31:29;;;;;;;;;;;;;;;;;;5087590;28;20026;-73
2024/02/24 10:33:56;;;;;;;;;;;;;;;;;;5088625;28;19925;-75
2024/02/24 10:36:23;;;;;;;;;;;;;;;;;;5088241;28;19932;-73
2024/02/24 10:38:50;;;;;;;;;;;;;;;;;;5086595;28;20341;-73
2024/02/24 10:41:17;;;;;;;;;;;;;;;;;;5089579;28;19986;-74
2024/02/24 10:43:44;;;;;;;;;;;;;;;;;;5087532;28;19928;-74
2024/02/24 10:46:11;;;;;;;;;;;;;;;;;;5084888;28;19928;-75
2024/02/24 10:48:38;;;;;;;;;;;;;;;;;;5082171;28;20223;-74
2024/02/24 10:51:06;;;;;;;;;;;;;;;;;;5087931;28;19928;-72
2024/02/24 10:53:33;;;;;;;;;;;;;;;;;;5094300;28;19932;-72
2024/02/24 10:56:01;;;;;;;;;;;;;;;;;;5098453;28;19927;-73
2024/02/24 10:58:28;;;;;;;;;;;;;;;;;;5099455;28;19928;-73
2024/02/24 11:00:55;;;;;;;;;;;;;;;;;;5097660;28;19927;-76
2024/02/24 11:03:22;;;;;;;;;;;;;;;;;;5100794;28;20398;-74
2024/02/24 11:05:49;;;;;;;;;;;;;;;;;;5099753;28;20040;-73
2024/02/24 11:08:16;;;;;;;;;;;;;;;;;;5103554;28;20347;-76
2024/02/24 11:10:45;;;;;;;;;;;;;;;;;;5096326;28;20272;-74
2024/02/24 11:13:12;;;;;;;;;;;;;;;;;;5095878;28;19928;-73
2024/02/24 11:15:39;;;;;;;;;;;;;;;;;;5098722;28;19973;-71
2024/02/24 11:18:06;;;;;;;;;;;;;;;;;;5100408;28;19982;-72
2024/02/24 11:20:32;;;;;;;;;;;;;;;;;;5102130;28;20015;-74
2024/02/24 11:23:00;;;;;;;;;;;;;;;;;;5102142;28;19972;-74
2024/02/24 11:25:27;;;;;;;;;;;;;;;;;;5097847;28;19938;-74
2024/02/24 11:27:54;;;;;;;;;;;;;;;;;;5101800;28;20356;-75
2024/02/24 11:30:21;;;;;;;;;;;;;;;;;;5100847;28;19928;-72
2024/02/24 11:32:48;;;;;;;;;;;;;;;;;;5101988;28;20328;-73
2024/02/24 11:35:15;;;;;;;;;;;;;;;;;;5097961;28;19927;-73
2024/02/24 11:37:42;;;;;;;;;;;;;;;;;;5094982;28;20468;-75
2024/02/24 11:40:09;;;;;;;;;;;;;;;;;;5095915;28;19994;-75
2024/02/24 11:42:37;;;;;;;;;;;;;;;;;;5099190;28;20014;-75
2024/02/24 11:45:04;;;;;;;;;;;;;;;;;;5097648;28;19977;-76
2024/02/24 11:47:32;;;;;;;;;;;;;;;;;;5097176;28;19928;-74
2024/02/24 11:49:59;;;;;;;;;;;;;;;;;;5098822;28;19932;-73
2024/02/24 11:52:26;;;;;;;;;;;;;;;;;;5096345;28;19988;-74
2024/02/24 11:54:53;;;;;;;;;;;;;;;;;;5098849;28;19975;-74
2024/02/24 11:57:21;;;;;;;;;;;;;;;;;;5097371;28;19975;-74
2024/02/24 11:59:48;;;;;;;;;;;;;;;;;;5098588;28;20008;-76
2024/02/24 12:02:15;;;;;;;;;;;;;;;;;;5098803;28;20024;-75
2024/02/24 12:04:42;;;;;;;;;;;;;;;;;;5097229;28;19928;-74
2024/02/24 12:07:09;;;;;;;;;;;;;;;;;;5097678;28;19928;-75
2024/02/24 12:09:36;;;;;;;;;;;;;;;;;;5096535;28;19971;-74
2024/02/24 12:12:03;;;;;;;;;;;;;;;;;;5097055;28;19944;-76
2024/02/24 12:14:30;;;;;;;;;;;;;;;;;;5097257;28;20679;-73
2024/02/24 12:16:58;;;;;;;;;;;;;;;;;;5101294;28;19982;-75
2024/02/24 12:19:27;;;;;;;;;;;;;;;;;;5097730;28;20421;-72
2024/02/24 12:21:57;;;;;;;;;;;;;;;;;;5101986;28;20019;-75
2024/02/24 12:24:24;;;;;;;;;;;;;;;;;;5097025;28;19934;-74
2024/02/24 12:26:52;;;;;;;;;;;;;;;;;;5101011;28;19932;-74
2024/02/24 12:29:19;;;;;;;;;;;;;;;;;;5103617;28;19932;-77
2024/02/24 12:31:46;;;;;;;;;;;;;;;;;;5102537;28;19932;-77
2024/02/24 12:34:13;;;;;;;;;;;;;;;;;;5101543;28;19971;-76
2024/02/24 12:36:40;;;;;;;;;;;;;;;;;;5097266;28;20023;-75
2024/02/24 12:39:08;;;;;;;;;;;;;;;;;;5095396;28;19928;-76
2024/02/24 12:41:35;;;;;;;;;;;;;;;;;;5094917;28;19928;-75
2024/02/24 12:44:03;;;;;;;;;;;;;;;;;;5096237;28;19927;-75
2024/02/24 12:46:30;;;;;;;;;;;;;;;;;;5101462;28;20042;-75
2024/02/24 12:48:57;;;;;;;;;;;;;;;;;;5097999;28;20406;-78
2024/02/24 12:51:24;;;;;;;;;;;;;;;;;;5096163;28;19931;-76
2024/02/24 12:53:51;;;;;;;;;;;;;;;;;;5096349;28;19983;-76
2024/02/24 12:56:18;;;;;;;;;;;;;;;;;;5103724;28;20235;-76
2024/02/24 12:58:45;;;;;;;;;;;;;;;;;;5098300;28;19973;-78
2024/02/24 13:01:13;;;;;;;;;;;;;;;;;;5092235;28;19990;-77
2024/02/24 13:03:40;;;;;;;;;;;;;;;;;;5089796;28;20394;-75
2024/02/24 13:06:07;;;;;;;;;;;;;;;;;;5090444;28;19924;-75
2024/02/24 13:08:36;;;;;;;;;;;;;;;;;;5089837;28;20325;-76
2024/02/24 13:11:03;;;;;;;;;;;;;;;;;;5096879;28;20034;-73
2024/02/24 13:13:30;;;;;;;;;;;;;;;;;;5105914;28;19963;-75
2024/02/24 13:15:57;;;;;;;;;;;;;;;;;;5089568;28;19928;-76
2024/02/24 13:18:24;;;;;;;;;;;;;;;;;;5089221;28;19931;-73
2024/02/24 13:20:51;;;;;;;;;;;;;;;;;;5090089;28;20022;-74
2024/02/24 13:23:18;;;;;;;;;;;;;;;;;;5089751;28;20002;-74
2024/02/24 13:25:45;;;;;;;;;;;;;;;;;;5093322;28;19963;-73
2024/02/24 13:28:13;;;;;;;;;;;;;;;;;;5096846;28;20018;-74
2024/02/24 13:30:40;;;;;;;;;;;;;;;;;;5089997;28;19932;-73
2024/02/24 13:33:07;;;;;;;;;;;;;;;;;;5090169;28;19932;-74
2024/02/24 13:35:35;;;;;;;;;;;;;;;;;;5089118;28;20001;-74
2024/02/24 13:38:02;;;;;;;;;;;;;;;;;;5089333;28;20015;-77
2024/02/24 13:40:29;;;;;;;;;;;;;;;;;;5089761;28;20024;-74
2024/02/24 13:42:56;;;;;;;;;;;;;;;;;;5086936;28;19943;-74
2024/02/24 13:45:23;;;;;;;;;;;;;;;;;;5089860;28;20022;-73
2024/02/24 13:47:50;;;;;;;;;;;;;;;;;;5105959;28;20339;-74
2024/02/24 13:50:19;;;;;;;;;;;;;;;;;;5109461;28;19927;-75
2024/02/24 13:52:46;;;;;;;;;;;;;;;;;;5096603;28;19931;-73
2024/02/24 13:55:14;;;;;;;;;;;;;;;;;;5110029;28;19928;-75
2024/02/24 13:57:41;;;;;;;;;;;;;;;;;;5094583;28;19974;-73
2024/02/24 14:00:10;;;;;;;;;;;;;;;;;;5089616;28;19934;-74
2024/02/24 14:02:37;;;;;;;;;;;;;;;;;;5089359;28;20340;-75
2024/02/24 14:05:04;;;;;;;;;;;;;;;;;;5089268;28;20042;-73
2024/02/24 14:07:31;;;;;;;;;;;;;;;;;;5089117;28;19978;-73
2024/02/24 14:09:58;;;;;;;;;;;;;;;;;;5088600;28;20010;-73
2024/02/24 14:12:25;;;;;;;;;;;;;;;;;;5091682;28;19932;-73
2024/02/24 14:14:52;;;;;;;;;;;;;;;;;;5089351;28;19928;-72
2024/02/24 14:17:19;;;;;;;;;;;;;;;;;;5089503;28;19951;-74
2024/02/24 14:19:46;;;;;;;;;;;;;;;;;;5089177;28;19935;-73
2024/02/24 14:22:13;;;;;;;;;;;;;;;;;;5088571;28;19982;-74
2024/02/24 14:24:40;;;;;;;;;;;;;;;;;;5082194;28;19928;-74
2024/02/24 14:27:07;;;;;;;;;;;;;;;;;;5095684;28;19955;-74
2024/02/24 14:29:34;;;;;;;;;;;;;;;;;;5112265;28;20023;-74
2024/02/24 14:32:01;;;;;;;;;;;;;;;;;;5113161;28;20086;-74
2024/02/24 14:34:28;;;;;;;;;;;;;;;;;;5096074;28;20026;-74
2024/02/24 14:36:55;;;;;;;;;;;;;;;;;;5093783;28;19981;-74
2024/02/24 14:39:22;;;;;;;;;;;;;;;;;;5095974;28;19978;-74
2024/02/24 14:41:49;;;;;;;;;;;;;;;;;;5098292;28;19928;-74
2024/02/24 14:44:16;;;;;;;;;;;;;;;;;;5107133;28;19928;-75
2024/02/24 14:46:43;;;;;;;;;;;;;;;;;;5095176;28;19927;-74
2024/02/24 14:49:10;;;;;;;;;;;;;;;;;;5095766;28;19928;-75
2024/02/24 14:51:37;;;;;;;;;;;;;;;;;;5093361;28;19928;-73
2024/02/24 14:54:06;;;;;;;;;;;;;;;;;;5095278;28;19934;-74
2024/02/24 14:56:33;;;;;;;;;;;;;;;;;;5084144;28;19934;-73
2024/02/24 14:59:00;;;;;;;;;;;;;;;;;;5093629;28;20046;-73
2024/02/24 15:01:27;;;;;;;;;;;;;;;;;;5085375;28;19927;-74
2024/02/24 15:03:54;;;;;;;;;;;;;;;;;;5095449;28;20018;-73
2024/02/24 15:06:21;;;;;;;;;;;;;;;;;;5095226;28;19928;-75
2024/02/24 15:08:48;;;;;;;;;;;;;;;;;;5095235;28;19932;-73
2024/02/24 15:11:15;;;;;;;;;;;;;;;;;;5075684;28;19972;-73
2024/02/24 15:13:42;;;;;;;;;;;;;;;;;;5085493;28;19928;-72
2024/02/24 15:16:09;;;;;;;;;;;;;;;;;;5101472;28;20038;-73
2024/02/24 15:18:36;;;;;;;;;;;;;;;;;;5116485;28;19979;-72
2024/02/24 15:21:03;;;;;;;;;;;;;;;;;;5113966;28;20010;-73
2024/02/24 15:23:30;;;;;;;;;;;;;;;;;;5095148;28;20018;-73
2024/02/24 15:25:57;;;;;;;;;;;;;;;;;;5094767;28;20399;-73
2024/02/24 15:28:24;;;;;;;;;;;;;;;;;;5095915;28;20031;-72
2024/02/24 15:30:51;;;;;;;;;;;;;;;;;;5095606;28;20001;-74
2024/02/24 15:33:18;;;;;;;;;;;;;;;;;;5094100;28;19974;-72
2024/02/24 15:35:45;;;;;;;;;;;;;;;;;;5094965;28;19932;-72
2024/02/24 15:38:12;;;;;;;;;;;;;;;;;;5095584;28;20030;-74
2024/02/24 15:40:39;;;;;;;;;;;;;;;;;;5093740;28;20015;-74
2024/02/24 15:43:06;;;;;;;;;;;;;;;;;;5091228;28;19934;-74
2024/02/24 15:45:33;;;;;;;;;;;;;;;;;;5091200;28;19935;-71
2024/02/24 15:48:00;;;;;;;;;;;;;;;;;;5088861;28;20006;-74
2024/02/24 15:50:27;;;;;;;;;;;;;;;;;;5097589;28;19928;-74
2024/02/24 15:52:54;;;;;;;;;;;;;;;;;;5094909;28;20279;-75
2024/02/24 15:55:21;;;;;;;;;;;;;;;;;;5096233;28;19934;-74
2024/02/24 15:57:48;;;;;;;;;;;;;;;;;;5100680;28;20050;-75
2024/02/24 16:00:15;;;;;;;;;;;;;;;;;;5090960;28;19931;-75
2024/02/24 16:02:43;;;;;;;;;;;;;;;;;;5097097;28;20305;-72
2024/02/24 16:05:10;;;;;;;;;;;;;;;;;;5099161;28;19935;-73
2024/02/24 16:07:37;;;;;;;;;;;;;;;;;;5100540;28;19928;-72
2024/02/24 16:10:04;;;;;;;;;;;;;;;;;;5096639;28;19974;-73
2024/02/24 16:12:31;;;;;;;;;;;;;;;;;;5095839;28;19927;-77
2024/02/24 16:14:58;;;;;;;;;;;;;;;;;;5097759;28;19928;-73
2024/02/24 16:17:25;;;;;;;;;;;;;;;;;;5099700;28;20266;-73
2024/02/24 16:19:52;;;;;;;;;;;;;;;;;;5101701;28;19980;-75
2024/02/24 16:22:19;;;;;;;;;;;;;;;;;;5089712;28;20502;-70
2024/02/24 16:24:46;;;;;;;;;;;;;;;;;;5091190;28;19975;-72
2024/02/24 16:27:13;;;;;;;;;;;;;;;;;;5090551;28;19993;-75
2024/02/24 16:29:40;;;;;;;;;;;;;;;;;;5091534;28;19967;-73
2024/02/24 16:32:07;;;;;;;;;;;;;;;;;;5093346;28;20276;-73
2024/02/24 16:34:34;;;;;;;;;;;;;;;;;;5091961;28;20403;-74
2024/02/24 16:37:01;;;;;;;;;;;;;;;;;;5089077;28;19970;-75
2024/02/24 16:39:30;;;;;;;;;;;;;;;;;;5099905;28;19928;-75
2024/02/24 16:41:57;;;;;;;;;;;;;;;;;;5091526;28;20313;-72
2024/02/24 16:44:24;;;;;;;;;;;;;;;;;;5088892;28;19999;-72